createdAt,value
2018-01-14T00:01:51.333Z,8.13
2018-01-14T00:04:19.723Z,9.83
2018-01-14T00:06:47.373Z,10.50
2018-01-14T00:09:15.485Z,11.53
2018-01-14T00:11:43.149Z,10.50
2018-01-14T00:14:12.277Z,10.68
2018-01-14T00:16:40.311Z,10.65
2018-01-14T00:19:08.147Z,9.50
2018-01-14T00:21:35.805Z,10.43
2018-01-14T00:24:03.622Z,10.17
2018-01-14T00:26:32.733Z,9.13
2018-01-14T00:29:00.650Z,10.30
2018-01-14T00:31:28.313Z,11.40
2018-01-14T00:33:56.541Z,11.48
2018-01-14T00:36:24.246Z,9.23
2018-01-14T00:38:52.645Z,10.02
2018-01-14T00:41:21.030Z,9.33
2018-01-14T00:43:49.461Z,10.80
2018-01-14T00:46:17.141Z,10.30
2018-01-14T00:48:44.808Z,10.77
2018-01-14T00:51:13.966Z,9.37
2018-01-14T00:53:41.577Z,9.73
2018-01-14T00:56:09.996Z,10.27
2018-01-14T00:58:37.653Z,9.73
2018-01-14T01:01:05.306Z,8.60
2018-01-14T01:03:33.019Z,11.77
2018-01-14T01:06:00.650Z,10.60
2018-01-14T01:08:28.301Z,10.00
2018-01-14T01:10:55.912Z,10.03
2018-01-14T01:13:23.564Z,10.73
2018-01-14T01:15:51.185Z,10.77
2018-01-14T01:18:18.841Z,9.50
2018-01-14T01:20:46.466Z,9.60
2018-01-14T01:23:14.898Z,9.75
2018-01-14T01:25:42.816Z,9.00
2018-01-14T01:28:11.235Z,8.70
2018-01-14T01:30:38.896Z,9.70
2018-01-14T01:33:06.513Z,9.37
2018-01-14T01:35:34.932Z,10.93
2018-01-14T01:38:02.590Z,9.93
2018-01-14T01:40:30.205Z,10.04
2018-01-14T01:42:58.580Z,9.40
2018-01-14T01:45:27.010Z,11.07
2018-01-14T01:47:54.624Z,10.10
2018-01-14T01:50:22.281Z,10.30
2018-01-14T01:52:50.715Z,9.65
2018-01-14T01:55:18.340Z,10.32
2018-01-14T01:57:45.993Z,9.80
2018-01-14T02:00:13.614Z,10.95
2018-01-14T02:02:41.277Z,9.57
2018-01-14T02:05:08.897Z,10.48
2018-01-14T02:07:36.508Z,10.73
2018-01-14T02:10:04.953Z,10.00
2018-01-14T02:12:32.570Z,10.30
2018-01-14T02:15:00.250Z,10.23
2018-01-14T02:17:27.905Z,8.65
2018-01-14T02:19:55.573Z,10.20
2018-01-14T02:22:23.203Z,11.10
2018-01-14T02:24:51.623Z,10.37
2018-01-14T02:27:19.237Z,10.37
2018-01-14T02:29:47.655Z,10.37
2018-01-14T02:32:15.277Z,10.43
2018-01-14T02:34:43.915Z,10.10
2018-01-14T02:37:11.541Z,10.77
2018-01-14T02:39:39.193Z,9.73
2018-01-14T02:42:06.813Z,10.00
2018-01-14T02:44:35.974Z,10.00
2018-01-14T02:47:03.598Z,9.80
2018-01-14T02:49:31.261Z,9.38
2018-01-14T02:52:00.930Z,11.15
2018-01-14T02:54:28.542Z,8.90
2018-01-14T02:56:56.200Z,10.95
2018-01-14T02:59:23.872Z,10.03
2018-01-14T03:01:51.904Z,11.20
2018-01-14T03:04:19.510Z,10.37
2018-01-14T03:06:47.342Z,11.00
2018-01-14T03:09:15.765Z,9.73
2018-01-14T03:11:43.522Z,11.20
2018-01-14T03:14:11.504Z,11.82
2018-01-14T03:16:39.128Z,10.00
2018-01-14T03:19:06.749Z,9.07
2018-01-14T03:21:34.417Z,11.37
2018-01-14T03:24:02.617Z,12.27
2018-01-14T03:26:30.408Z,11.73
2018-01-14T03:28:58.025Z,10.10
2018-01-14T03:31:25.845Z,8.07
2018-01-14T03:33:53.504Z,10.27
2018-01-14T03:36:21.141Z,13.00
2018-01-14T03:38:48.825Z,11.60
2018-01-14T03:41:16.444Z,13.83
2018-01-14T03:43:44.097Z,10.20
2018-01-14T03:46:11.893Z,10.80
2018-01-14T03:48:39.585Z,12.80
2018-01-14T03:51:07.236Z,11.07
2018-01-14T03:53:34.905Z,11.20
2018-01-14T03:56:02.521Z,10.25
2018-01-14T03:58:30.191Z,12.43
2018-01-14T04:00:58.026Z,13.90
2018-01-14T04:03:25.708Z,11.13
2018-01-14T04:05:53.369Z,12.30
2018-01-14T04:08:20.984Z,12.27
2018-01-14T04:10:49.405Z,11.67
2018-01-14T04:13:17.045Z,9.90
2018-01-14T04:15:44.968Z,10.20
2018-01-14T04:18:12.629Z,13.20
2018-01-14T04:20:40.358Z,12.73
2018-01-14T04:23:08.250Z,13.10
2018-01-14T04:25:36.098Z,13.03
2018-01-14T04:28:03.754Z,12.53
2018-01-14T04:30:31.405Z,12.77
2018-01-14T04:32:59.030Z,14.10
2018-01-14T04:35:27.762Z,12.67
2018-01-14T04:37:55.444Z,13.57
2018-01-14T04:40:23.242Z,13.40
2018-01-14T04:42:51.625Z,14.13
2018-01-14T04:45:20.044Z,14.73
2018-01-14T04:47:47.662Z,12.47
2018-01-14T04:50:15.480Z,12.15
2018-01-14T04:52:43.137Z,13.40
2018-01-14T04:55:10.748Z,13.27
2018-01-14T04:57:39.209Z,12.43
2018-01-14T05:00:06.829Z,13.17
2018-01-14T05:02:34.494Z,13.00
2018-01-14T05:05:02.106Z,12.67
2018-01-14T05:07:29.897Z,12.90
2018-01-14T05:09:58.124Z,13.68
2018-01-14T05:12:25.965Z,14.40
2018-01-14T05:14:54.401Z,13.33
2018-01-14T05:17:22.026Z,13.30
2018-01-14T05:19:50.451Z,15.18
2018-01-14T05:22:18.115Z,13.83
2018-01-14T05:24:45.732Z,14.40
2018-01-14T05:27:14.789Z,13.77
2018-01-14T05:29:42.453Z,13.68
2018-01-14T05:32:10.069Z,12.87
2018-01-14T05:34:37.759Z,13.53
2018-01-14T05:37:05.419Z,14.60
2018-01-14T05:39:33.287Z,15.83
2018-01-14T05:42:00.938Z,14.00
2018-01-14T05:44:29.334Z,14.30
2018-01-14T05:46:57.521Z,13.70
2018-01-14T05:49:25.141Z,14.43
2018-01-14T05:51:52.797Z,11.75
2018-01-14T05:54:20.474Z,13.48
2018-01-14T05:56:48.163Z,12.93
2018-01-14T05:59:15.784Z,13.00
2018-01-14T06:01:43.441Z,13.32
2018-01-14T06:04:11.060Z,12.60
2018-01-14T06:06:38.798Z,14.30
2018-01-14T06:09:06.472Z,13.43
2018-01-14T06:11:34.125Z,14.10
2018-01-14T06:14:01.964Z,13.30
2018-01-14T06:16:29.623Z,13.10
2018-01-14T06:18:58.282Z,14.30
2018-01-14T06:21:26.096Z,14.27
2018-01-14T06:23:53.719Z,13.52
2018-01-14T06:26:21.369Z,14.20
2018-01-14T06:28:49.737Z,16.10
2018-01-14T06:31:17.358Z,14.32
2018-01-14T06:33:45.013Z,15.37
2018-01-14T06:36:12.669Z,15.02
2018-01-14T06:38:40.288Z,15.43
2018-01-14T06:41:07.945Z,14.10
2018-01-14T06:43:35.597Z,14.95
2018-01-14T06:46:03.404Z,15.33
2018-01-14T06:48:31.026Z,15.53
2018-01-14T06:50:58.692Z,15.00
2018-01-14T06:53:26.313Z,15.73
2018-01-14T06:55:54.526Z,17.10
2018-01-14T06:58:22.185Z,15.60
2018-01-14T07:00:49.840Z,15.83
2018-01-14T07:03:17.453Z,14.87
2018-01-14T07:05:45.206Z,16.67
2018-01-14T07:08:12.970Z,15.33
2018-01-14T07:10:40.630Z,15.60
2018-01-14T07:13:08.917Z,15.13
2018-01-14T07:15:37.493Z,15.07
2018-01-14T07:18:05.113Z,14.90
2018-01-14T07:20:32.788Z,15.62
2018-01-14T07:23:01.269Z,17.20
2018-01-14T07:25:29.149Z,15.30
2018-01-14T07:27:56.821Z,15.70
2018-01-14T07:30:24.444Z,14.53
2018-01-14T07:32:52.871Z,16.03
2018-01-14T07:35:21.532Z,16.87
2018-01-14T07:37:50.185Z,15.73
2018-01-14T07:40:17.887Z,14.65
2018-01-14T07:42:45.530Z,13.60
2018-01-14T07:45:13.414Z,15.97
2018-01-14T07:47:41.045Z,15.60
2018-01-14T07:50:09.342Z,15.50
2018-01-14T07:52:37.013Z,14.77
2018-01-14T07:55:04.633Z,15.67
2018-01-14T07:57:32.542Z,14.67
2018-01-14T08:00:01.176Z,15.67
2018-01-14T08:02:28.851Z,15.60
2018-01-14T08:04:56.821Z,16.00
2018-01-14T08:07:24.479Z,16.73
2018-01-14T08:09:52.398Z,13.88
2018-01-14T08:12:20.143Z,16.07
2018-01-14T08:14:48.792Z,15.68
2018-01-14T08:17:17.365Z,15.60
2018-01-14T08:19:45.048Z,14.43
2018-01-14T08:22:12.722Z,15.83
2018-01-14T08:24:41.100Z,15.07
2018-01-14T08:27:08.740Z,14.83
2018-01-14T08:29:36.408Z,13.60
2018-01-14T08:32:04.337Z,15.80
2018-01-14T08:34:32.885Z,14.20
2018-01-14T08:37:01.750Z,16.60
2018-01-14T08:39:29.391Z,13.70
2018-01-14T08:41:57.050Z,14.43
2018-01-14T08:44:24.684Z,15.23
2018-01-14T08:46:52.398Z,15.47
2018-01-14T08:49:20.696Z,15.23
2018-01-14T08:51:48.361Z,13.90
2018-01-14T08:54:15.982Z,13.27
2018-01-14T08:56:44.448Z,15.13
2018-01-14T08:59:15.552Z,12.95
2018-01-14T09:01:48.878Z,11.73
2018-01-14T09:04:16.646Z,14.67
2018-01-14T09:06:44.304Z,15.50
2018-01-14T09:09:14.388Z,16.20
2018-01-14T09:11:44.242Z,14.00
2018-01-14T09:14:11.953Z,13.93
2018-01-14T09:16:40.641Z,14.40
2018-01-14T09:19:09.046Z,14.38
2018-01-14T09:21:37.361Z,14.60
2018-01-14T09:24:04.992Z,14.17
2018-01-14T09:26:32.608Z,13.43
2018-01-14T09:29:01.034Z,15.02
2018-01-14T09:31:30.562Z,13.75
2018-01-14T09:33:59.554Z,12.35
2018-01-14T09:36:27.217Z,15.50
2018-01-14T09:38:55.081Z,13.20
2018-01-14T09:41:22.769Z,14.90
2018-01-14T09:43:51.046Z,15.20
2018-01-14T09:46:18.966Z,12.70
2018-01-14T09:48:50.979Z,13.85
2018-01-14T09:51:20.062Z,14.20
2018-01-14T09:53:49.412Z,14.27
2018-01-14T09:56:17.725Z,14.90
2018-01-14T09:58:45.376Z,14.80
2018-01-14T10:01:13.315Z,14.65
2018-01-14T10:03:43.843Z,13.80
2018-01-14T10:06:13.255Z,14.17
2018-01-14T10:08:43.482Z,14.97
2018-01-14T10:11:11.111Z,15.20
2018-01-14T10:13:38.789Z,15.17
2018-01-14T10:16:06.654Z,14.63
2018-01-14T10:18:34.810Z,14.40
2018-01-14T10:21:05.057Z,15.13
2018-01-14T10:23:33.322Z,12.30
2018-01-14T10:26:02.261Z,15.33
2018-01-14T10:28:30.689Z,14.50
2018-01-14T10:30:58.514Z,14.10
2018-01-14T10:33:26.873Z,15.02
2018-01-14T10:35:55.954Z,14.30
2018-01-14T10:38:24.681Z,11.57
2018-01-14T10:40:52.289Z,13.20
2018-01-14T10:43:19.949Z,15.13
2018-01-14T10:45:47.577Z,16.13
2018-01-14T10:48:15.232Z,9.80
2018-01-14T10:50:43.686Z,13.77
2018-01-14T10:53:11.369Z,14.30
2018-01-14T10:55:39.005Z,16.00
2018-01-14T10:58:07.442Z,12.80
2018-01-14T11:00:40.696Z,15.50
2018-01-14T11:03:08.361Z,15.30
2018-01-14T11:05:35.986Z,14.93
2018-01-14T11:08:04.401Z,14.20
2018-01-14T11:10:32.041Z,13.50
2018-01-14T11:12:59.701Z,16.13
2018-01-14T11:15:28.267Z,15.17
2018-01-14T11:17:56.679Z,15.77
2018-01-14T11:20:24.305Z,14.58
2018-01-14T11:22:52.720Z,16.67
2018-01-14T11:25:20.405Z,14.68
2018-01-14T11:27:48.089Z,14.70
2018-01-14T11:30:15.757Z,15.23
2018-01-14T11:32:44.164Z,13.57
2018-01-14T11:35:11.788Z,16.42
2018-01-14T11:37:39.441Z,15.65
2018-01-14T11:40:07.070Z,15.77
2018-01-14T11:42:34.731Z,15.80
2018-01-14T11:45:02.353Z,16.50
2018-01-14T11:47:30.793Z,15.10
2018-01-14T11:49:58.416Z,15.35
2018-01-14T11:52:26.081Z,15.80
2018-01-14T11:54:53.698Z,14.00
2018-01-14T11:57:22.213Z,15.73
2018-01-14T11:59:49.835Z,16.10
2018-01-14T12:02:18.280Z,14.50
2018-01-14T12:04:46.037Z,11.83
2018-01-14T12:07:13.798Z,16.00
2018-01-14T12:09:42.254Z,15.40
2018-01-14T12:12:09.908Z,13.07
2018-01-14T12:14:37.525Z,17.05
2018-01-14T12:17:05.191Z,16.60
2018-01-14T12:19:33.589Z,16.40
2018-01-14T12:22:02.217Z,16.00
2018-01-14T12:24:29.914Z,14.60
2018-01-14T12:26:57.788Z,17.25
2018-01-14T12:29:25.412Z,14.13
2018-01-14T12:31:53.083Z,16.30
2018-01-14T12:34:39.564Z,15.38
2018-01-14T12:37:07.254Z,16.47
2018-01-14T12:39:34.901Z,15.60
2018-01-14T12:42:02.559Z,16.50
2018-01-14T12:44:30.199Z,16.73
2018-01-14T12:46:57.822Z,15.23
2018-01-14T12:49:25.644Z,16.50
2018-01-14T12:51:53.305Z,17.20
2018-01-14T12:54:20.950Z,15.83
2018-01-14T12:56:48.616Z,17.40
2018-01-14T12:59:16.245Z,14.07
2018-01-14T13:01:44.461Z,14.77
2018-01-14T13:04:12.080Z,17.20
2018-01-14T13:06:39.705Z,16.70
2018-01-14T13:09:08.124Z,17.90
2018-01-14T13:11:35.743Z,15.73
2018-01-14T13:14:03.431Z,15.17
2018-01-14T13:16:31.044Z,17.37
2018-01-14T13:18:58.708Z,15.38
2018-01-14T13:21:26.370Z,18.40
2018-01-14T13:23:54.789Z,14.90
2018-01-14T13:26:22.758Z,23.87
2018-01-14T13:28:51.180Z,16.90
2018-01-14T13:31:20.827Z,16.33
2018-01-14T13:33:48.453Z,17.20
2018-01-14T13:36:16.350Z,16.23
2018-01-14T13:38:44.006Z,15.77
2018-01-14T13:41:13.093Z,16.20
2018-01-14T13:43:40.718Z,16.30
2018-01-14T13:46:08.340Z,16.90
2018-01-14T13:48:35.994Z,16.57
2018-01-14T13:51:03.639Z,15.90
2018-01-14T13:53:31.703Z,15.63
2018-01-14T13:55:59.542Z,16.37
2018-01-14T13:58:27.409Z,15.43
2018-01-14T14:00:55.069Z,16.47
2018-01-14T14:03:22.689Z,15.57
2018-01-14T14:05:50.357Z,15.53
2018-01-14T14:08:18.586Z,16.40
2018-01-14T14:10:46.209Z,17.37
2018-01-14T14:13:13.863Z,15.25
2018-01-14T14:15:41.644Z,15.60
2018-01-14T14:18:10.109Z,16.20
2018-01-14T14:20:37.777Z,16.90
2018-01-14T14:23:05.429Z,15.47
2018-01-14T14:25:33.276Z,14.90
2018-01-14T14:28:00.945Z,16.20
2018-01-14T14:30:29.189Z,13.23
2018-01-14T14:32:56.825Z,14.90
2018-01-14T14:35:26.209Z,17.83
2018-01-14T14:37:53.833Z,14.85
2018-01-14T14:40:21.542Z,16.63
2018-01-14T14:42:49.181Z,16.80
2018-01-14T14:45:16.807Z,17.80
2018-01-14T14:47:44.717Z,16.23
2018-01-14T14:50:12.981Z,15.80
2018-01-14T14:52:41.497Z,15.20
2018-01-14T14:55:09.936Z,17.50
2018-01-14T14:57:37.563Z,17.40
2018-01-14T15:00:05.223Z,16.80
2018-01-14T15:02:32.887Z,17.60
2018-01-14T15:05:00.517Z,17.37
2018-01-14T15:07:28.172Z,17.08
2018-01-14T15:09:55.812Z,15.02
2018-01-14T15:12:23.489Z,18.30
2018-01-14T15:14:51.165Z,19.80
2018-01-14T15:17:18.818Z,19.27
2018-01-14T15:19:47.254Z,17.60
2018-01-14T15:22:15.630Z,17.53
2018-01-14T15:24:43.245Z,14.35
2018-01-14T15:27:10.909Z,17.85
2018-01-14T15:29:38.615Z,18.35
2018-01-14T15:32:06.581Z,17.90
2018-01-14T15:34:34.444Z,17.23
2018-01-14T15:37:02.068Z,18.40
2018-01-14T15:39:29.729Z,17.67
2018-01-14T15:41:57.349Z,17.50
2018-01-14T15:44:25.010Z,16.00
2018-01-14T15:46:52.632Z,15.93
2018-01-14T15:49:20.878Z,17.90
2018-01-14T15:51:48.696Z,17.83
2018-01-14T15:54:16.349Z,15.60
2018-01-14T15:56:44.317Z,17.30
2018-01-14T15:59:11.975Z,17.05
2018-01-14T16:01:41.567Z,12.33
2018-01-14T16:04:09.734Z,16.05
2018-01-14T16:06:38.658Z,18.83
2018-01-14T16:09:06.418Z,17.17
2018-01-14T16:11:34.077Z,18.63
2018-01-14T16:14:02.397Z,16.77
2018-01-14T16:16:30.828Z,17.33
2018-01-14T16:18:58.481Z,18.27
2018-01-14T16:21:26.109Z,16.58
2018-01-14T16:23:53.773Z,19.33
2018-01-14T16:26:22.114Z,16.77
2018-01-14T16:28:49.734Z,17.30
2018-01-14T16:31:17.397Z,15.53
2018-01-14T16:33:45.021Z,18.27
2018-01-14T16:36:12.685Z,16.37
2018-01-14T16:38:40.349Z,16.67
2018-01-14T16:41:07.969Z,13.63
2018-01-14T16:43:36.230Z,16.80
2018-01-14T16:46:04.189Z,18.57
2018-01-14T16:48:32.044Z,17.93
2018-01-14T16:50:59.673Z,17.10
2018-01-14T16:53:27.298Z,17.62
2018-01-14T16:55:54.963Z,14.40
2018-01-14T16:58:23.542Z,16.70
2018-01-14T17:00:51.264Z,17.90
2018-01-14T17:03:18.880Z,15.63
2018-01-14T17:05:48.117Z,16.93
2018-01-14T17:08:15.780Z,14.73
2018-01-14T17:10:44.053Z,16.92
2018-01-14T17:13:11.816Z,17.63
2018-01-14T17:15:39.436Z,17.65
2018-01-14T17:18:07.056Z,16.97
2018-01-14T17:20:35.481Z,16.70
2018-01-14T17:23:03.336Z,14.83
2018-01-14T17:25:31.380Z,17.17
2018-01-14T17:27:59.055Z,12.45
2018-01-14T17:30:26.964Z,16.60
2018-01-14T17:32:54.753Z,15.43
2018-01-14T17:35:22.453Z,16.08
2018-01-14T17:37:50.114Z,12.75
2018-01-14T17:40:18.378Z,15.90
2018-01-14T17:42:47.043Z,18.20
2018-01-14T17:45:14.696Z,16.30
2018-01-14T17:47:42.942Z,15.55
2018-01-14T17:50:10.573Z,14.87
2018-01-14T17:52:38.239Z,16.15
2018-01-14T17:55:05.860Z,16.67
2018-01-14T17:57:33.514Z,16.10
2018-01-14T18:04:09.556Z,15.70
2018-01-14T18:06:37.178Z,20.87
2018-01-14T18:09:05.788Z,16.33
2018-01-14T18:11:33.621Z,12.37
2018-01-14T18:14:02.045Z,14.05
2018-01-14T18:16:30.303Z,17.20
2018-01-14T18:18:58.013Z,15.48
2018-01-14T18:21:25.956Z,15.52
2018-01-14T18:23:53.889Z,16.23
2018-01-14T18:26:23.228Z,17.87
2018-01-14T18:28:50.898Z,16.60
2018-01-14T18:31:18.754Z,17.53
2018-01-14T18:33:46.451Z,14.60
2018-01-14T18:36:14.148Z,15.27
2018-01-14T18:38:42.437Z,14.87
2018-01-14T18:41:10.107Z,16.17
2018-01-14T18:43:38.319Z,15.47
2018-01-14T18:46:09.902Z,15.60
2018-01-14T18:48:37.557Z,13.88
2018-01-14T18:51:05.381Z,16.20
2018-01-14T18:53:33.042Z,16.10
2018-01-14T18:56:00.907Z,16.80
2018-01-14T18:58:28.589Z,16.98
2018-01-14T19:00:57.024Z,16.87
2018-01-14T19:03:24.976Z,16.97
2018-01-14T19:05:52.609Z,17.12
2018-01-14T19:08:21.057Z,18.63
2018-01-14T19:10:48.753Z,18.67
2018-01-14T19:13:17.142Z,17.90
2018-01-14T19:15:44.802Z,16.73
2018-01-14T19:18:12.625Z,16.30
2018-01-14T19:20:40.309Z,14.60
2018-01-14T19:23:07.928Z,18.80
2018-01-14T19:25:35.593Z,17.02
2018-01-14T19:28:03.405Z,17.13
2018-01-14T19:30:31.073Z,16.07
2018-01-14T19:32:59.275Z,15.70
2018-01-14T19:35:26.945Z,17.37
2018-01-14T19:37:54.801Z,20.45
2018-01-14T19:40:22.564Z,16.30
2018-01-14T19:42:50.321Z,18.10
2018-01-14T19:45:17.982Z,18.20
2018-01-14T19:47:45.665Z,17.48
2018-01-14T19:50:13.337Z,17.60
2018-01-14T19:52:41.020Z,18.52
2018-01-14T19:55:09.405Z,18.95
2018-01-14T19:57:38.069Z,16.53
2018-01-14T20:00:06.515Z,19.87
2018-01-14T20:02:34.137Z,17.43
2018-01-14T20:05:02.035Z,17.45
2018-01-14T20:07:29.711Z,18.42
2018-01-14T20:09:57.376Z,15.48
2018-01-14T20:12:25.037Z,17.30
2018-01-14T20:14:52.667Z,19.17
2018-01-14T20:17:20.346Z,18.45
2018-01-14T20:19:48.320Z,16.33
2018-01-14T20:22:15.997Z,17.37
2018-01-14T20:24:43.710Z,18.10
2018-01-14T20:27:11.397Z,19.50
2018-01-14T20:29:39.057Z,19.10
2018-01-14T20:32:06.760Z,19.92
2018-01-14T20:34:35.228Z,17.80
2018-01-14T20:37:03.663Z,18.33
2018-01-14T20:39:31.346Z,18.60
2018-01-14T20:41:59.013Z,17.70
2018-01-14T20:44:28.456Z,19.20
2018-01-14T20:46:56.114Z,16.83
2018-01-14T20:49:23.820Z,17.30
2018-01-14T20:51:51.480Z,19.07
2018-01-14T20:54:19.113Z,17.03
2018-01-14T20:56:46.773Z,17.95
2018-01-14T20:59:14.413Z,19.37
2018-01-14T21:01:42.865Z,19.25
2018-01-14T21:04:10.501Z,19.43
2018-01-14T21:06:38.204Z,18.80
2018-01-14T21:09:06.605Z,14.75
2018-01-14T21:11:34.280Z,18.50
2018-01-14T21:14:02.092Z,20.30
2018-01-14T21:16:30.732Z,17.45
2018-01-14T21:18:58.392Z,19.70
2018-01-14T21:21:26.017Z,17.77
2018-01-14T21:23:54.407Z,18.07
2018-01-14T21:26:22.350Z,19.30
2018-01-14T21:28:50.058Z,18.27
2018-01-14T21:31:18.321Z,18.40
2018-01-14T21:33:45.989Z,18.02
2018-01-14T21:36:13.733Z,19.40
2018-01-14T21:38:41.329Z,18.90
2018-01-14T21:41:08.963Z,16.85
2018-01-14T21:43:37.180Z,17.50
2018-01-14T21:46:04.919Z,19.50
2018-01-14T21:48:32.597Z,19.87
2018-01-14T21:51:00.980Z,17.70
2018-01-14T21:53:28.624Z,18.03
2018-01-14T21:55:56.282Z,19.03
2018-01-14T21:58:24.531Z,18.23
2018-01-14T22:00:52.393Z,18.60
2018-01-14T22:03:20.180Z,16.50
2018-01-14T22:05:47.998Z,18.23
2018-01-14T22:08:16.699Z,18.90
2018-01-14T22:10:44.613Z,19.25
2018-01-14T22:13:12.237Z,20.08
2018-01-14T22:15:39.921Z,19.00
2018-01-14T22:18:07.728Z,17.50
2018-01-14T22:20:36.734Z,19.35
2018-01-14T22:23:04.354Z,19.02
2018-01-14T22:25:31.977Z,18.02
2018-01-14T22:27:59.632Z,19.00
2018-01-14T22:30:27.311Z,18.17
2018-01-14T22:32:55.177Z,17.98
2018-01-14T22:35:23.533Z,19.87
2018-01-14T22:37:51.151Z,18.90
2018-01-14T22:40:18.806Z,17.40
2018-01-14T22:42:46.433Z,19.23
2018-01-14T22:45:14.276Z,17.73
2018-01-14T22:47:41.978Z,19.60
2018-01-14T22:50:09.641Z,19.47
2018-01-14T22:52:37.302Z,17.53
2018-01-14T22:55:05.043Z,18.73
2018-01-14T22:57:33.030Z,19.70
2018-01-14T23:00:01.326Z,17.80
2018-01-14T23:02:28.974Z,18.65
2018-01-14T23:04:56.634Z,18.40
2018-01-14T23:07:24.288Z,18.43
2018-01-14T23:09:51.927Z,15.90
2018-01-14T23:12:19.590Z,19.90
2018-01-14T23:14:52.817Z,18.40
2018-01-14T23:17:21.936Z,20.97
2018-01-14T23:19:49.597Z,16.10
2018-01-14T23:22:17.970Z,18.87
2018-01-14T23:24:45.632Z,20.57
2018-01-14T23:27:13.261Z,20.23
2018-01-14T23:29:41.009Z,19.70
2018-01-14T23:32:08.689Z,17.97
2018-01-14T23:34:36.632Z,16.17
2018-01-14T23:37:04.396Z,19.80
2018-01-14T23:39:32.034Z,20.33
2018-01-14T23:41:59.717Z,20.10
2018-01-14T23:44:27.821Z,21.23
2018-01-14T23:46:55.478Z,18.80
2018-01-14T23:49:23.196Z,17.52
2018-01-14T23:51:52.806Z,20.42
2018-01-14T23:54:20.481Z,20.27
2018-01-14T23:56:48.107Z,19.73
2018-01-14T23:59:15.751Z,19.10
